sensor_id;sensor_type;location;lat;lon;timestamp;temperature;humidity
12043;DHT22;6082;49.306;12.862;2023-07-30T00:01:44;19.50;99.90
12043;DHT22;6082;49.306;12.862;2023-07-30T00:04:10;19.50;99.90
12043;DHT22;6082;49.306;12.862;2023-07-30T00:06:35;19.50;99.90
12043;DHT22;6082;49.306;12.862;2023-07-30T00:09:01;19.40;99.90
12043;DHT22;6082;49.306;12.862;2023-07-30T00:11:27;19.40;99.90
12043;DHT22;6082;49.306;12.862;2023-07-30T00:13:52;19.30;99.90
12043;DHT22;6082;49.306;12.862;2023-07-30T00:16:18;19.30;99.90
12043;DHT22;6082;49.306;12.862;2023-07-30T00:18:44;19.30;99.90
12043;DHT22;6082;49.306;12.862;2023-07-30T00:21:10;19.30;99.90
12043;DHT22;6082;49.306;12.862;2023-07-30T00:23:35;19.30;99.90
12043;DHT22;6082;49.306;12.862;2023-07-30T00:26:01;19.30;99.90
12043;DHT22;6082;49.306;12.862;2023-07-30T00:28:27;19.30;99.90
12043;DHT22;6082;49.306;12.862;2023-07-30T00:30:52;19.30;99.90
12043;DHT22;6082;49.306;12.862;2023-07-30T00:33:18;19.20;99.90
12043;DHT22;6082;49.306;12.862;2023-07-30T00:35:44;19.20;99.90
12043;DHT22;6082;49.306;12.862;2023-07-30T00:38:09;19.20;99.90
12043;DHT22;6082;49.306;12.862;2023-07-30T00:40:41;19.20;99.90
12043;DHT22;6082;49.306;12.862;2023-07-30T00:43:07;19.20;99.90
12043;DHT22;6082;49.306;12.862;2023-07-30T00:45:33;19.20;99.90
12043;DHT22;6082;49.306;12.862;2023-07-30T00:48:00;19.20;99.90
12043;DHT22;6082;49.306;12.862;2023-07-30T00:50:26;19.20;99.90
12043;DHT22;6082;49.306;12.862;2023-07-30T00:52:52;19.20;99.90
12043;DHT22;6082;49.306;12.862;2023-07-30T00:55:18;19.20;99.90
12043;DHT22;6082;49.306;12.862;2023-07-30T00:57:45;19.20;99.90
12043;DHT22;6082;49.306;12.862;2023-07-30T01:00:11;19.10;99.90
12043;DHT22;6082;49.306;12.862;2023-07-30T01:02:37;19.20;99.90
12043;DHT22;6082;49.306;12.862;2023-07-30T01:05:03;19.20;99.90
12043;DHT22;6082;49.306;12.862;2023-07-30T01:07:30;19.10;99.90
12043;DHT22;6082;49.306;12.862;2023-07-30T01:09:57;19.20;99.90
12043;DHT22;6082;49.306;12.862;2023-07-30T01:12:23;19.20;99.90
12043;DHT22;6082;49.306;12.862;2023-07-30T01:14:49;19.20;99.90
12043;DHT22;6082;49.306;12.862;2023-07-30T01:17:16;19.10;99.90
12043;DHT22;6082;49.306;12.862;2023-07-30T01:19:42;19.10;99.90
12043;DHT22;6082;49.306;12.862;2023-07-30T01:22:07;19.10;99.90
12043;DHT22;6082;49.306;12.862;2023-07-30T01:24:33;19.10;99.90
12043;DHT22;6082;49.306;12.862;2023-07-30T01:27:05;19.10;99.90
12043;DHT22;6082;49.306;12.862;2023-07-30T01:29:41;19.10;99.90
12043;DHT22;6082;49.306;12.862;2023-07-30T01:32:11;19.10;99.90
12043;DHT22;6082;49.306;12.862;2023-07-30T01:34:38;19.10;99.90
12043;DHT22;6082;49.306;12.862;2023-07-30T01:37:10;19.10;99.90
12043;DHT22;6082;49.306;12.862;2023-07-30T01:39:39;19.10;99.90
12043;DHT22;6082;49.306;12.862;2023-07-30T01:42:05;19.10;99.90
12043;DHT22;6082;49.306;12.862;2023-07-30T01:44:31;19.10;99.90
12043;DHT22;6082;49.306;12.862;2023-07-30T01:46:57;19.10;99.90
12043;DHT22;6082;49.306;12.862;2023-07-30T01:49:23;19.10;99.90
12043;DHT22;6082;49.306;12.862;2023-07-30T01:51:49;19.10;99.90
12043;DHT22;6082;49.306;12.862;2023-07-30T01:54:14;19.10;99.90
12043;DHT22;6082;49.306;12.862;2023-07-30T01:56:40;19.10;99.90
12043;DHT22;6082;49.306;12.862;2023-07-30T01:59:06;19.10;99.90
12043;DHT22;6082;49.306;12.862;2023-07-30T02:01:32;19.10;99.90
12043;DHT22;6082;49.306;12.862;2023-07-30T02:03:57;19.10;99.90
12043;DHT22;6082;49.306;12.862;2023-07-30T02:06:23;19.10;99.90
12043;DHT22;6082;49.306;12.862;2023-07-30T02:08:49;19.10;99.90
12043;DHT22;6082;49.306;12.862;2023-07-30T02:11:14;19.10;99.90
12043;DHT22;6082;49.306;12.862;2023-07-30T02:13:40;19.10;99.90
12043;DHT22;6082;49.306;12.862;2023-07-30T02:16:06;19.10;99.90
12043;DHT22;6082;49.306;12.862;2023-07-30T02:18:32;19.20;99.90
12043;DHT22;6082;49.306;12.862;2023-07-30T02:20:57;19.10;99.90
12043;DHT22;6082;49.306;12.862;2023-07-30T02:23:23;19.20;99.90
12043;DHT22;6082;49.306;12.862;2023-07-30T02:25:49;19.10;99.90
12043;DHT22;6082;49.306;12.862;2023-07-30T02:28:15;19.10;99.90
12043;DHT22;6082;49.306;12.862;2023-07-30T02:30:40;19.10;99.90
12043;DHT22;6082;49.306;12.862;2023-07-30T02:33:06;19.10;99.90
12043;DHT22;6082;49.306;12.862;2023-07-30T02:35:32;19.10;99.90
12043;DHT22;6082;49.306;12.862;2023-07-30T02:37:57;19.10;99.90
12043;DHT22;6082;49.306;12.862;2023-07-30T02:40:23;19.10;99.90
12043;DHT22;6082;49.306;12.862;2023-07-30T02:42:49;19.10;99.90
12043;DHT22;6082;49.306;12.862;2023-07-30T02:45:14;19.10;99.90
12043;DHT22;6082;49.306;12.862;2023-07-30T02:47:40;19.00;99.90
12043;DHT22;6082;49.306;12.862;2023-07-30T02:50:06;19.00;99.90
12043;DHT22;6082;49.306;12.862;2023-07-30T02:52:32;19.00;99.90
12043;DHT22;6082;49.306;12.862;2023-07-30T02:54:57;19.00;99.90
12043;DHT22;6082;49.306;12.862;2023-07-30T02:57:23;19.00;99.90
12043;DHT22;6082;49.306;12.862;2023-07-30T02:59:49;19.00;99.90
12043;DHT22;6082;49.306;12.862;2023-07-30T03:02:14;19.00;99.90
12043;DHT22;6082;49.306;12.862;2023-07-30T03:04:40;19.00;99.90
12043;DHT22;6082;49.306;12.862;2023-07-30T03:07:06;19.00;99.90
12043;DHT22;6082;49.306;12.862;2023-07-30T03:09:32;19.00;99.90
12043;DHT22;6082;49.306;12.862;2023-07-30T03:11:58;19.10;99.90
12043;DHT22;6082;49.306;12.862;2023-07-30T03:14:24;19.10;99.90
12043;DHT22;6082;49.306;12.862;2023-07-30T03:16:50;19.10;99.90
12043;DHT22;6082;49.306;12.862;2023-07-30T03:19:16;19.10;99.90
12043;DHT22;6082;49.306;12.862;2023-07-30T03:21:42;19.10;99.90
12043;DHT22;6082;49.306;12.862;2023-07-30T03:24:08;19.10;99.90
12043;DHT22;6082;49.306;12.862;2023-07-30T03:26:34;19.10;99.90
12043;DHT22;6082;49.306;12.862;2023-07-30T03:28:59;19.10;99.90
12043;DHT22;6082;49.306;12.862;2023-07-30T03:31:25;19.10;99.90
12043;DHT22;6082;49.306;12.862;2023-07-30T03:33:51;19.20;99.90
12043;DHT22;6082;49.306;12.862;2023-07-30T03:36:16;19.20;99.90
12043;DHT22;6082;49.306;12.862;2023-07-30T03:38:43;19.20;99.90
12043;DHT22;6082;49.306;12.862;2023-07-30T03:41:10;19.20;99.90
12043;DHT22;6082;49.306;12.862;2023-07-30T03:43:36;19.20;99.90
12043;DHT22;6082;49.306;12.862;2023-07-30T03:46:02;19.20;99.90
12043;DHT22;6082;49.306;12.862;2023-07-30T03:48:28;19.20;99.90
12043;DHT22;6082;49.306;12.862;2023-07-30T03:50:54;19.20;99.90
12043;DHT22;6082;49.306;12.862;2023-07-30T03:53:21;19.20;99.90
12043;DHT22;6082;49.306;12.862;2023-07-30T03:55:47;19.20;99.90
12043;DHT22;6082;49.306;12.862;2023-07-30T03:58:13;19.20;99.90
12043;DHT22;6082;49.306;12.862;2023-07-30T04:00:42;19.10;99.90
12043;DHT22;6082;49.306;12.862;2023-07-30T04:03:08;19.20;99.90
12043;DHT22;6082;49.306;12.862;2023-07-30T04:05:34;19.10;99.90
12043;DHT22;6082;49.306;12.862;2023-07-30T04:07:59;19.10;99.90
12043;DHT22;6082;49.306;12.862;2023-07-30T04:10:25;19.10;99.90
12043;DHT22;6082;49.306;12.862;2023-07-30T04:12:51;19.00;99.90
12043;DHT22;6082;49.306;12.862;2023-07-30T04:15:17;19.00;99.90
12043;DHT22;6082;49.306;12.862;2023-07-30T04:17:43;19.00;99.90
12043;DHT22;6082;49.306;12.862;2023-07-30T04:20:09;19.00;99.90
12043;DHT22;6082;49.306;12.862;2023-07-30T04:22:36;19.00;99.90
12043;DHT22;6082;49.306;12.862;2023-07-30T04:25:05;19.00;99.90
12043;DHT22;6082;49.306;12.862;2023-07-30T04:27:32;18.90;99.90
12043;DHT22;6082;49.306;12.862;2023-07-30T04:29:58;18.90;99.90
12043;DHT22;6082;49.306;12.862;2023-07-30T04:32:24;18.90;99.90
12043;DHT22;6082;49.306;12.862;2023-07-30T04:34:50;18.80;99.90
12043;DHT22;6082;49.306;12.862;2023-07-30T04:37:15;18.80;99.90
12043;DHT22;6082;49.306;12.862;2023-07-30T04:39:41;18.80;99.90
12043;DHT22;6082;49.306;12.862;2023-07-30T04:42:07;18.80;99.90
12043;DHT22;6082;49.306;12.862;2023-07-30T04:44:32;18.80;99.90
12043;DHT22;6082;49.306;12.862;2023-07-30T04:46:58;18.80;99.90
12043;DHT22;6082;49.306;12.862;2023-07-30T04:49:24;18.70;99.90
12043;DHT22;6082;49.306;12.862;2023-07-30T04:51:49;18.80;99.90
12043;DHT22;6082;49.306;12.862;2023-07-30T04:54:15;18.70;99.90
12043;DHT22;6082;49.306;12.862;2023-07-30T04:56:41;18.70;99.90
12043;DHT22;6082;49.306;12.862;2023-07-30T04:59:07;18.70;99.90
12043;DHT22;6082;49.306;12.862;2023-07-30T05:01:32;18.70;99.90
12043;DHT22;6082;49.306;12.862;2023-07-30T05:03:58;18.70;99.90
12043;DHT22;6082;49.306;12.862;2023-07-30T05:06:24;18.60;99.90
12043;DHT22;6082;49.306;12.862;2023-07-30T05:08:49;18.70;99.90
12043;DHT22;6082;49.306;12.862;2023-07-30T05:11:15;18.60;99.90
12043;DHT22;6082;49.306;12.862;2023-07-30T05:13:41;18.60;99.90
12043;DHT22;6082;49.306;12.862;2023-07-30T05:16:07;18.60;99.90
12043;DHT22;6082;49.306;12.862;2023-07-30T05:18:32;18.50;99.90
12043;DHT22;6082;49.306;12.862;2023-07-30T05:20:58;18.50;99.90
12043;DHT22;6082;49.306;12.862;2023-07-30T05:23:24;18.50;99.90
12043;DHT22;6082;49.306;12.862;2023-07-30T05:25:50;18.50;99.90
12043;DHT22;6082;49.306;12.862;2023-07-30T05:28:15;18.50;99.90
12043;DHT22;6082;49.306;12.862;2023-07-30T05:30:41;18.50;99.90
12043;DHT22;6082;49.306;12.862;2023-07-30T05:33:07;18.50;99.90
12043;DHT22;6082;49.306;12.862;2023-07-30T05:35:33;18.50;99.90
12043;DHT22;6082;49.306;12.862;2023-07-30T05:37:59;18.50;99.90
12043;DHT22;6082;49.306;12.862;2023-07-30T05:40:24;18.50;99.90
12043;DHT22;6082;49.306;12.862;2023-07-30T05:42:50;18.50;99.90
12043;DHT22;6082;49.306;12.862;2023-07-30T05:45:16;18.50;99.90
12043;DHT22;6082;49.306;12.862;2023-07-30T05:47:42;18.50;99.90
12043;DHT22;6082;49.306;12.862;2023-07-30T05:50:08;18.50;99.90
12043;DHT22;6082;49.306;12.862;2023-07-30T05:52:34;18.50;99.90
12043;DHT22;6082;49.306;12.862;2023-07-30T05:55:00;18.50;99.90
12043;DHT22;6082;49.306;12.862;2023-07-30T05:57:25;18.50;99.90
12043;DHT22;6082;49.306;12.862;2023-07-30T05:59:51;18.50;99.90
12043;DHT22;6082;49.306;12.862;2023-07-30T06:02:17;18.50;99.90
12043;DHT22;6082;49.306;12.862;2023-07-30T06:04:43;18.60;99.90
12043;DHT22;6082;49.306;12.862;2023-07-30T06:07:09;18.60;99.90
12043;DHT22;6082;49.306;12.862;2023-07-30T06:09:35;18.60;99.90
12043;DHT22;6082;49.306;12.862;2023-07-30T06:12:00;18.60;99.90
12043;DHT22;6082;49.306;12.862;2023-07-30T06:14:26;18.60;99.90
12043;DHT22;6082;49.306;12.862;2023-07-30T06:16:53;18.60;99.90
12043;DHT22;6082;49.306;12.862;2023-07-30T06:19:22;18.60;99.90
12043;DHT22;6082;49.306;12.862;2023-07-30T06:21:48;18.70;99.90
12043;DHT22;6082;49.306;12.862;2023-07-30T06:24:13;18.70;99.90
12043;DHT22;6082;49.306;12.862;2023-07-30T06:26:39;18.70;99.90
12043;DHT22;6082;49.306;12.862;2023-07-30T06:29:05;18.70;99.90
12043;DHT22;6082;49.306;12.862;2023-07-30T06:31:31;18.70;99.90
12043;DHT22;6082;49.306;12.862;2023-07-30T06:33:56;18.70;99.90
12043;DHT22;6082;49.306;12.862;2023-07-30T06:36:22;18.70;99.90
12043;DHT22;6082;49.306;12.862;2023-07-30T06:38:48;18.80;99.90
12043;DHT22;6082;49.306;12.862;2023-07-30T06:41:14;18.80;99.90
12043;DHT22;6082;49.306;12.862;2023-07-30T06:43:40;18.80;99.90
12043;DHT22;6082;49.306;12.862;2023-07-30T06:46:05;18.90;99.90
12043;DHT22;6082;49.306;12.862;2023-07-30T06:48:31;18.90;99.90
12043;DHT22;6082;49.306;12.862;2023-07-30T06:50:57;18.90;99.90
12043;DHT22;6082;49.306;12.862;2023-07-30T06:53:23;18.90;99.90
12043;DHT22;6082;49.306;12.862;2023-07-30T06:55:49;19.00;99.90
12043;DHT22;6082;49.306;12.862;2023-07-30T06:58:14;19.00;99.90
12043;DHT22;6082;49.306;12.862;2023-07-30T07:00:40;19.00;99.90
12043;DHT22;6082;49.306;12.862;2023-07-30T07:03:06;19.00;99.90
12043;DHT22;6082;49.306;12.862;2023-07-30T07:05:32;19.10;99.90
12043;DHT22;6082;49.306;12.862;2023-07-30T07:07:57;19.10;99.90
12043;DHT22;6082;49.306;12.862;2023-07-30T07:10:23;19.10;99.90
12043;DHT22;6082;49.306;12.862;2023-07-30T07:12:49;19.20;99.90
12043;DHT22;6082;49.306;12.862;2023-07-30T07:15:15;19.20;99.90
12043;DHT22;6082;49.306;12.862;2023-07-30T07:17:41;19.20;99.90
12043;DHT22;6082;49.306;12.862;2023-07-30T07:20:07;19.20;99.90
12043;DHT22;6082;49.306;12.862;2023-07-30T07:22:33;19.30;99.90
12043;DHT22;6082;49.306;12.862;2023-07-30T07:24:59;19.30;99.90
12043;DHT22;6082;49.306;12.862;2023-07-30T07:27:25;19.30;99.90
12043;DHT22;6082;49.306;12.862;2023-07-30T07:29:52;19.30;99.90
12043;DHT22;6082;49.306;12.862;2023-07-30T07:32:18;19.30;99.90
12043;DHT22;6082;49.306;12.862;2023-07-30T07:34:50;19.30;99.90
12043;DHT22;6082;49.306;12.862;2023-07-30T07:37:16;19.30;99.90
12043;DHT22;6082;49.306;12.862;2023-07-30T07:39:44;19.30;99.90
12043;DHT22;6082;49.306;12.862;2023-07-30T07:42:11;19.30;99.90
12043;DHT22;6082;49.306;12.862;2023-07-30T07:44:37;19.30;99.90
12043;DHT22;6082;49.306;12.862;2023-07-30T07:47:02;19.30;99.90
12043;DHT22;6082;49.306;12.862;2023-07-30T07:49:28;19.30;99.90
12043;DHT22;6082;49.306;12.862;2023-07-30T07:51:54;19.40;99.90
12043;DHT22;6082;49.306;12.862;2023-07-30T07:54:20;19.50;99.90
12043;DHT22;6082;49.306;12.862;2023-07-30T07:56:46;19.50;99.90
12043;DHT22;6082;49.306;12.862;2023-07-30T07:59:12;19.50;99.90
12043;DHT22;6082;49.306;12.862;2023-07-30T08:01:37;19.60;99.90
12043;DHT22;6082;49.306;12.862;2023-07-30T08:04:03;19.60;99.90
12043;DHT22;6082;49.306;12.862;2023-07-30T08:06:29;19.60;99.90
12043;DHT22;6082;49.306;12.862;2023-07-30T08:08:56;19.70;99.90
12043;DHT22;6082;49.306;12.862;2023-07-30T08:11:25;19.80;99.90
12043;DHT22;6082;49.306;12.862;2023-07-30T08:13:51;19.80;99.90
12043;DHT22;6082;49.306;12.862;2023-07-30T08:16:16;19.80;99.90
12043;DHT22;6082;49.306;12.862;2023-07-30T08:18:45;19.90;99.90
12043;DHT22;6082;49.306;12.862;2023-07-30T08:21:11;19.90;99.90
12043;DHT22;6082;49.306;12.862;2023-07-30T08:23:36;19.90;99.90
12043;DHT22;6082;49.306;12.862;2023-07-30T08:26:02;20.00;99.90
12043;DHT22;6082;49.306;12.862;2023-07-30T08:28:28;20.00;99.90
12043;DHT22;6082;49.306;12.862;2023-07-30T08:31:00;20.10;99.90
12043;DHT22;6082;49.306;12.862;2023-07-30T08:33:27;20.20;99.90
12043;DHT22;6082;49.306;12.862;2023-07-30T08:35:55;20.20;99.90
12043;DHT22;6082;49.306;12.862;2023-07-30T08:38:22;20.30;99.90
12043;DHT22;6082;49.306;12.862;2023-07-30T08:40:47;20.40;99.90
12043;DHT22;6082;49.306;12.862;2023-07-30T08:43:18;20.50;99.90
12043;DHT22;6082;49.306;12.862;2023-07-30T08:45:45;20.60;99.90
12043;DHT22;6082;49.306;12.862;2023-07-30T08:48:14;20.70;99.90
12043;DHT22;6082;49.306;12.862;2023-07-30T08:50:40;20.70;99.90
12043;DHT22;6082;49.306;12.862;2023-07-30T08:53:07;20.80;99.90
12043;DHT22;6082;49.306;12.862;2023-07-30T08:55:34;20.90;99.90
12043;DHT22;6082;49.306;12.862;2023-07-30T08:58:04;21.10;99.90
12043;DHT22;6082;49.306;12.862;2023-07-30T09:00:37;21.10;99.90
12043;DHT22;6082;49.306;12.862;2023-07-30T09:03:04;21.20;99.90
12043;DHT22;6082;49.306;12.862;2023-07-30T09:05:31;21.30;99.90
12043;DHT22;6082;49.306;12.862;2023-07-30T09:07:57;21.30;99.90
12043;DHT22;6082;49.306;12.862;2023-07-30T09:10:29;21.30;99.90
12043;DHT22;6082;49.306;12.862;2023-07-30T09:12:58;21.30;99.90
12043;DHT22;6082;49.306;12.862;2023-07-30T09:15:35;21.30;99.90
12043;DHT22;6082;49.306;12.862;2023-07-30T09:18:06;21.30;99.90
12043;DHT22;6082;49.306;12.862;2023-07-30T09:20:41;21.30;99.90
12043;DHT22;6082;49.306;12.862;2023-07-30T09:23:07;21.30;99.90
12043;DHT22;6082;49.306;12.862;2023-07-30T09:25:35;21.40;99.90
12043;DHT22;6082;49.306;12.862;2023-07-30T09:28:01;21.40;99.90
12043;DHT22;6082;49.306;12.862;2023-07-30T09:30:26;21.40;99.90
12043;DHT22;6082;49.306;12.862;2023-07-30T09:32:57;21.40;99.90
12043;DHT22;6082;49.306;12.862;2023-07-30T09:35:33;21.50;99.90
12043;DHT22;6082;49.306;12.862;2023-07-30T09:38:00;21.60;99.90
12043;DHT22;6082;49.306;12.862;2023-07-30T09:40:35;21.60;99.90
12043;DHT22;6082;49.306;12.862;2023-07-30T09:43:05;21.50;99.90
12043;DHT22;6082;49.306;12.862;2023-07-30T09:45:36;21.50;99.90
12043;DHT22;6082;49.306;12.862;2023-07-30T09:48:03;21.50;99.90
12043;DHT22;6082;49.306;12.862;2023-07-30T09:50:34;21.50;99.90
12043;DHT22;6082;49.306;12.862;2023-07-30T09:53:01;21.40;99.90
12043;DHT22;6082;49.306;12.862;2023-07-30T09:55:27;21.40;99.90
12043;DHT22;6082;49.306;12.862;2023-07-30T09:57:53;21.40;99.90
12043;DHT22;6082;49.306;12.862;2023-07-30T10:00:19;21.40;99.90
12043;DHT22;6082;49.306;12.862;2023-07-30T10:02:49;21.40;99.90
12043;DHT22;6082;49.306;12.862;2023-07-30T10:05:18;21.50;99.90
12043;DHT22;6082;49.306;12.862;2023-07-30T10:07:57;21.40;99.90
12043;DHT22;6082;49.306;12.862;2023-07-30T10:10:25;21.40;99.90
12043;DHT22;6082;49.306;12.862;2023-07-30T10:12:53;21.50;99.90
12043;DHT22;6082;49.306;12.862;2023-07-30T10:15:20;21.60;99.90
12043;DHT22;6082;49.306;12.862;2023-07-30T10:17:52;21.60;99.90
12043;DHT22;6082;49.306;12.862;2023-07-30T10:20:23;21.70;99.90
12043;DHT22;6082;49.306;12.862;2023-07-30T10:23:00;21.90;99.90
12043;DHT22;6082;49.306;12.862;2023-07-30T10:25:41;21.90;99.90
12043;DHT22;6082;49.306;12.862;2023-07-30T10:28:08;22.10;99.90
12043;DHT22;6082;49.306;12.862;2023-07-30T10:30:34;22.10;99.90
12043;DHT22;6082;49.306;12.862;2023-07-30T10:33:02;22.10;99.90
12043;DHT22;6082;49.306;12.862;2023-07-30T10:35:41;22.20;99.90
12043;DHT22;6082;49.306;12.862;2023-07-30T10:40:51;22.20;99.90
12043;DHT22;6082;49.306;12.862;2023-07-30T10:43:28;22.30;99.90
12043;DHT22;6082;49.306;12.862;2023-07-30T10:45:53;22.40;99.90
12043;DHT22;6082;49.306;12.862;2023-07-30T10:48:39;22.40;99.90
12043;DHT22;6082;49.306;12.862;2023-07-30T10:51:08;22.40;99.90
12043;DHT22;6082;49.306;12.862;2023-07-30T10:53:34;22.50;99.90
12043;DHT22;6082;49.306;12.862;2023-07-30T10:56:03;22.50;99.90
12043;DHT22;6082;49.306;12.862;2023-07-30T10:58:34;22.60;99.90
12043;DHT22;6082;49.306;12.862;2023-07-30T11:01:05;22.60;99.90
12043;DHT22;6082;49.306;12.862;2023-07-30T11:03:31;22.60;99.90
12043;DHT22;6082;49.306;12.862;2023-07-30T11:05:58;22.60;99.90
12043;DHT22;6082;49.306;12.862;2023-07-30T11:08:41;22.60;99.90
12043;DHT22;6082;49.306;12.862;2023-07-30T11:11:08;22.70;99.90
12043;DHT22;6082;49.306;12.862;2023-07-30T11:13:45;22.60;99.90
12043;DHT22;6082;49.306;12.862;2023-07-30T11:16:17;22.60;99.90
12043;DHT22;6082;49.306;12.862;2023-07-30T11:18:43;22.60;99.90
12043;DHT22;6082;49.306;12.862;2023-07-30T11:21:10;22.60;99.90
12043;DHT22;6082;49.306;12.862;2023-07-30T11:23:38;22.50;99.90
12043;DHT22;6082;49.306;12.862;2023-07-30T11:26:06;22.50;99.90
12043;DHT22;6082;49.306;12.862;2023-07-30T11:28:37;22.50;99.90
12043;DHT22;6082;49.306;12.862;2023-07-30T11:31:08;22.40;99.90
12043;DHT22;6082;49.306;12.862;2023-07-30T11:33:36;22.40;99.90
12043;DHT22;6082;49.306;12.862;2023-07-30T11:36:03;22.50;99.90
12043;DHT22;6082;49.306;12.862;2023-07-30T11:38:30;22.50;99.90
12043;DHT22;6082;49.306;12.862;2023-07-30T11:40:56;22.50;99.90
12043;DHT22;6082;49.306;12.862;2023-07-30T11:43:22;22.70;99.90
12043;DHT22;6082;49.306;12.862;2023-07-30T11:45:49;22.70;99.90
12043;DHT22;6082;49.306;12.862;2023-07-30T11:48:15;22.90;99.90
12043;DHT22;6082;49.306;12.862;2023-07-30T11:50:49;23.10;99.90
12043;DHT22;6082;49.306;12.862;2023-07-30T11:53:15;23.10;99.90
12043;DHT22;6082;49.306;12.862;2023-07-30T11:55:43;23.00;99.90
12043;DHT22;6082;49.306;12.862;2023-07-30T11:58:10;23.10;99.90
12043;DHT22;6082;49.306;12.862;2023-07-30T12:00:37;23.10;99.90
12043;DHT22;6082;49.306;12.862;2023-07-30T12:03:04;23.10;99.90
12043;DHT22;6082;49.306;12.862;2023-07-30T12:05:35;23.20;99.90
12043;DHT22;6082;49.306;12.862;2023-07-30T12:08:05;23.20;99.90
12043;DHT22;6082;49.306;12.862;2023-07-30T12:13:16;23.30;99.90
12043;DHT22;6082;49.306;12.862;2023-07-30T12:15:44;23.30;99.90
12043;DHT22;6082;49.306;12.862;2023-07-30T12:18:10;23.30;99.90
12043;DHT22;6082;49.306;12.862;2023-07-30T12:20:35;23.20;99.90
12043;DHT22;6082;49.306;12.862;2023-07-30T12:23:02;23.20;99.90
12043;DHT22;6082;49.306;12.862;2023-07-30T12:25:28;23.20;99.90
12043;DHT22;6082;49.306;12.862;2023-07-30T12:27:54;23.10;99.90
12043;DHT22;6082;49.306;12.862;2023-07-30T12:30:20;23.10;99.90
12043;DHT22;6082;49.306;12.862;2023-07-30T12:32:45;23.00;99.90
12043;DHT22;6082;49.306;12.862;2023-07-30T12:35:13;23.00;99.90
12043;DHT22;6082;49.306;12.862;2023-07-30T12:37:39;22.90;99.90
12043;DHT22;6082;49.306;12.862;2023-07-30T12:40:06;22.90;99.90
12043;DHT22;6082;49.306;12.862;2023-07-30T12:42:32;22.80;99.90
12043;DHT22;6082;49.306;12.862;2023-07-30T12:44:58;22.70;99.90
12043;DHT22;6082;49.306;12.862;2023-07-30T12:47:23;22.60;99.90
12043;DHT22;6082;49.306;12.862;2023-07-30T12:49:49;22.40;99.90
12043;DHT22;6082;49.306;12.862;2023-07-30T12:52:15;22.40;99.90
12043;DHT22;6082;49.306;12.862;2023-07-30T12:54:41;22.30;99.90
12043;DHT22;6082;49.306;12.862;2023-07-30T12:57:07;22.30;99.90
12043;DHT22;6082;49.306;12.862;2023-07-30T12:59:32;22.20;99.90
12043;DHT22;6082;49.306;12.862;2023-07-30T13:01:58;22.20;99.90
12043;DHT22;6082;49.306;12.862;2023-07-30T13:04:24;22.20;99.90
12043;DHT22;6082;49.306;12.862;2023-07-30T13:06:55;22.20;99.90
12043;DHT22;6082;49.306;12.862;2023-07-30T13:09:21;22.10;99.90
12043;DHT22;6082;49.306;12.862;2023-07-30T13:11:47;22.10;99.90
12043;DHT22;6082;49.306;12.862;2023-07-30T13:14:13;22.10;99.90
12043;DHT22;6082;49.306;12.862;2023-07-30T13:16:39;22.10;99.90
12043;DHT22;6082;49.306;12.862;2023-07-30T13:19:05;22.00;99.90
12043;DHT22;6082;49.306;12.862;2023-07-30T13:21:30;21.90;99.90
12043;DHT22;6082;49.306;12.862;2023-07-30T13:23:56;21.90;99.90
12043;DHT22;6082;49.306;12.862;2023-07-30T13:26:22;22.00;99.90
12043;DHT22;6082;49.306;12.862;2023-07-30T13:28:47;21.90;99.90
12043;DHT22;6082;49.306;12.862;2023-07-30T13:31:13;22.00;99.90
12043;DHT22;6082;49.306;12.862;2023-07-30T13:33:39;22.00;99.90
12043;DHT22;6082;49.306;12.862;2023-07-30T13:36:05;22.00;99.90
12043;DHT22;6082;49.306;12.862;2023-07-30T13:38:31;22.00;99.90
12043;DHT22;6082;49.306;12.862;2023-07-30T13:40:56;22.00;99.90
12043;DHT22;6082;49.306;12.862;2023-07-30T13:43:22;22.10;99.90
12043;DHT22;6082;49.306;12.862;2023-07-30T13:45:48;22.10;99.90
12043;DHT22;6082;49.306;12.862;2023-07-30T13:48:16;22.10;99.90
12043;DHT22;6082;49.306;12.862;2023-07-30T13:50:42;22.10;99.90
12043;DHT22;6082;49.306;12.862;2023-07-30T13:53:08;22.10;99.90
12043;DHT22;6082;49.306;12.862;2023-07-30T13:55:33;22.10;99.90
12043;DHT22;6082;49.306;12.862;2023-07-30T13:57:59;22.20;99.90
12043;DHT22;6082;49.306;12.862;2023-07-30T14:00:25;22.40;99.90
12043;DHT22;6082;49.306;12.862;2023-07-30T14:02:50;22.50;99.90
12043;DHT22;6082;49.306;12.862;2023-07-30T14:05:16;22.50;99.90
12043;DHT22;6082;49.306;12.862;2023-07-30T14:07:42;22.60;99.90
12043;DHT22;6082;49.306;12.862;2023-07-30T14:10:09;22.70;99.90
12043;DHT22;6082;49.306;12.862;2023-07-30T14:12:35;22.80;99.90
12043;DHT22;6082;49.306;12.862;2023-07-30T14:15:01;22.80;99.90
12043;DHT22;6082;49.306;12.862;2023-07-30T14:17:27;22.90;99.90
12043;DHT22;6082;49.306;12.862;2023-07-30T14:19:52;22.90;99.90
12043;DHT22;6082;49.306;12.862;2023-07-30T14:22:21;22.90;99.90
12043;DHT22;6082;49.306;12.862;2023-07-30T14:24:47;22.90;99.90
12043;DHT22;6082;49.306;12.862;2023-07-30T14:27:13;23.00;99.90
12043;DHT22;6082;49.306;12.862;2023-07-30T14:29:38;23.00;99.90
12043;DHT22;6082;49.306;12.862;2023-07-30T14:32:04;23.10;99.90
12043;DHT22;6082;49.306;12.862;2023-07-30T14:34:30;23.10;99.90
12043;DHT22;6082;49.306;12.862;2023-07-30T14:36:56;23.20;99.90
12043;DHT22;6082;49.306;12.862;2023-07-30T14:39:22;23.20;99.90
12043;DHT22;6082;49.306;12.862;2023-07-30T14:41:48;23.30;99.90
12043;DHT22;6082;49.306;12.862;2023-07-30T14:44:13;23.30;99.90
12043;DHT22;6082;49.306;12.862;2023-07-30T14:46:39;23.20;99.90
12043;DHT22;6082;49.306;12.862;2023-07-30T14:49:05;23.20;99.90
12043;DHT22;6082;49.306;12.862;2023-07-30T14:51:31;23.20;99.90
12043;DHT22;6082;49.306;12.862;2023-07-30T14:53:56;23.10;99.90
12043;DHT22;6082;49.306;12.862;2023-07-30T14:56:28;23.10;99.90
12043;DHT22;6082;49.306;12.862;2023-07-30T14:58:54;23.10;99.90
12043;DHT22;6082;49.306;12.862;2023-07-30T15:01:22;23.10;99.90
12043;DHT22;6082;49.306;12.862;2023-07-30T15:03:48;23.10;99.90
12043;DHT22;6082;49.306;12.862;2023-07-30T15:06:14;23.10;99.90
12043;DHT22;6082;49.306;12.862;2023-07-30T15:08:39;23.20;99.90
12043;DHT22;6082;49.306;12.862;2023-07-30T15:11:05;23.30;99.90
12043;DHT22;6082;49.306;12.862;2023-07-30T15:13:31;23.30;99.90
12043;DHT22;6082;49.306;12.862;2023-07-30T15:15:56;23.30;99.90
12043;DHT22;6082;49.306;12.862;2023-07-30T15:18:22;23.20;99.90
12043;DHT22;6082;49.306;12.862;2023-07-30T15:20:48;23.10;99.90
12043;DHT22;6082;49.306;12.862;2023-07-30T15:23:14;23.10;99.90
12043;DHT22;6082;49.306;12.862;2023-07-30T15:25:40;23.00;99.90
12043;DHT22;6082;49.306;12.862;2023-07-30T15:28:06;22.90;99.90
12043;DHT22;6082;49.306;12.862;2023-07-30T15:30:32;22.90;99.90
12043;DHT22;6082;49.306;12.862;2023-07-30T15:32:57;22.80;99.90